sensor_id;sensor_type;location;lat;lon;timestamp;pressure;altitude;pressure_sealevel;temperature;humidity
74794;BME280;63320;50.768;6.724;2023-09-07T00:02:17;100525.31;;;20.52;64.41
74794;BME280;63320;50.768;6.724;2023-09-07T00:04:44;100520.63;;;20.65;64.02
74794;BME280;63320;50.768;6.724;2023-09-07T00:07:09;100522.72;;;20.30;64.29
74794;BME280;63320;50.768;6.724;2023-09-07T00:09:35;100516.28;;;20.32;64.44
74794;BME280;63320;50.768;6.724;2023-09-07T00:12:00;100523.59;;;20.30;64.73
74794;BME280;63320;50.768;6.724;2023-09-07T00:14:25;100508.81;;;20.47;64.14
74794;BME280;63320;50.768;6.724;2023-09-07T00:16:51;100503.94;;;20.52;64.61
74794;BME280;63320;50.768;6.724;2023-09-07T00:19:16;100505.91;;;20.50;64.14
74794;BME280;63320;50.768;6.724;2023-09-07T00:21:43;100514.59;;;20.31;65.05
74794;BME280;63320;50.768;6.724;2023-09-07T00:24:08;100510.59;;;20.05;65.91
74794;BME280;63320;50.768;6.724;2023-09-07T00:26:34;100520.91;;;20.30;65.95
74794;BME280;63320;50.768;6.724;2023-09-07T00:28:59;100503.91;;;20.31;64.91
74794;BME280;63320;50.768;6.724;2023-09-07T00:31:24;100509.44;;;20.18;65.90
74794;BME280;63320;50.768;6.724;2023-09-07T00:33:50;100519.66;;;20.13;66.06
74794;BME280;63320;50.768;6.724;2023-09-07T00:36:15;100516.28;;;20.32;64.59
74794;BME280;63320;50.768;6.724;2023-09-07T00:38:42;100516.94;;;20.25;64.76
74794;BME280;63320;50.768;6.724;2023-09-07T00:41:07;100513.28;;;20.26;65.22
74794;BME280;63320;50.768;6.724;2023-09-07T00:43:32;100512.13;;;20.07;64.25
74794;BME280;63320;50.768;6.724;2023-09-07T00:45:58;100518.91;;;20.11;66.01
74794;BME280;63320;50.768;6.724;2023-09-07T00:48:23;100507.66;;;20.08;66.45
74794;BME280;63320;50.768;6.724;2023-09-07T00:50:48;100500.28;;;20.00;64.59
74794;BME280;63320;50.768;6.724;2023-09-07T00:53:14;100505.03;;;19.97;66.58
74794;BME280;63320;50.768;6.724;2023-09-07T00:55:41;100501.19;;;19.89;67.22
74794;BME280;63320;50.768;6.724;2023-09-07T00:58:06;100492.88;;;19.60;67.79
74794;BME280;63320;50.768;6.724;2023-09-07T01:00:33;100493.09;;;19.80;67.09
74794;BME280;63320;50.768;6.724;2023-09-07T01:02:59;100500.06;;;19.92;66.92
74794;BME280;63320;50.768;6.724;2023-09-07T01:05:34;100497.53;;;19.90;67.23
74794;BME280;63320;50.768;6.724;2023-09-07T01:08:08;100502.06;;;19.79;66.96
74794;BME280;63320;50.768;6.724;2023-09-07T01:10:35;100498.59;;;19.99;66.72
74794;BME280;63320;50.768;6.724;2023-09-07T01:13:02;100497.75;;;19.99;66.58
74794;BME280;63320;50.768;6.724;2023-09-07T01:15:27;100500.81;;;19.83;65.94
74794;BME280;63320;50.768;6.724;2023-09-07T01:17:53;100496.00;;;19.77;66.84
74794;BME280;63320;50.768;6.724;2023-09-07T01:20:20;100498.94;;;19.62;66.72
74794;BME280;63320;50.768;6.724;2023-09-07T01:22:46;100500.72;;;19.84;66.25
74794;BME280;63320;50.768;6.724;2023-09-07T01:25:12;100494.34;;;19.97;66.09
74794;BME280;63320;50.768;6.724;2023-09-07T01:27:38;100493.84;;;19.71;66.52
74794;BME280;63320;50.768;6.724;2023-09-07T01:30:05;100489.25;;;19.50;66.43
74794;BME280;63320;50.768;6.724;2023-09-07T01:32:30;100485.13;;;19.46;67.86
74794;BME280;63320;50.768;6.724;2023-09-07T01:34:57;100492.28;;;19.46;68.17
74794;BME280;63320;50.768;6.724;2023-09-07T01:37:23;100482.31;;;19.48;68.79
74794;BME280;63320;50.768;6.724;2023-09-07T01:39:50;100476.31;;;19.34;67.98
74794;BME280;63320;50.768;6.724;2023-09-07T01:42:15;100478.72;;;19.37;68.20
74794;BME280;63320;50.768;6.724;2023-09-07T01:44:40;100478.13;;;19.23;67.89
74794;BME280;63320;50.768;6.724;2023-09-07T01:47:06;100478.72;;;19.37;68.68
74794;BME280;63320;50.768;6.724;2023-09-07T01:49:31;100480.78;;;19.34;69.55
74794;BME280;63320;50.768;6.724;2023-09-07T01:51:56;100483.25;;;19.14;69.06
74794;BME280;63320;50.768;6.724;2023-09-07T01:54:22;100469.66;;;19.18;69.44
74794;BME280;63320;50.768;6.724;2023-09-07T01:56:48;100477.03;;;19.25;69.34
74794;BME280;63320;50.768;6.724;2023-09-07T01:59:14;100481.66;;;19.12;68.97
74794;BME280;63320;50.768;6.724;2023-09-07T02:01:39;100476.34;;;19.23;68.00
74794;BME280;63320;50.768;6.724;2023-09-07T02:04:05;100477.66;;;19.29;68.13
74794;BME280;63320;50.768;6.724;2023-09-07T02:06:30;100469.78;;;19.16;67.81
74794;BME280;63320;50.768;6.724;2023-09-07T02:08:55;100471.38;;;18.96;70.25
74794;BME280;63320;50.768;6.724;2023-09-07T02:11:21;100469.31;;;19.00;68.77
74794;BME280;63320;50.768;6.724;2023-09-07T02:13:48;100468.81;;;19.06;68.32
74794;BME280;63320;50.768;6.724;2023-09-07T02:16:13;100470.25;;;19.21;68.31
74794;BME280;63320;50.768;6.724;2023-09-07T02:18:39;100468.34;;;19.23;68.73
74794;BME280;63320;50.768;6.724;2023-09-07T02:21:04;100467.56;;;19.32;69.27
74794;BME280;63320;50.768;6.724;2023-09-07T02:23:31;100470.13;;;19.34;67.69
74794;BME280;63320;50.768;6.724;2023-09-07T02:25:56;100474.44;;;19.69;67.98
74794;BME280;63320;50.768;6.724;2023-09-07T02:28:22;100472.50;;;19.71;67.72
74794;BME280;63320;50.768;6.724;2023-09-07T02:30:48;100468.88;;;19.60;67.32
74794;BME280;63320;50.768;6.724;2023-09-07T02:33:13;100463.75;;;19.57;67.47
74794;BME280;63320;50.768;6.724;2023-09-07T02:35:39;100471.75;;;19.80;66.28
74794;BME280;63320;50.768;6.724;2023-09-07T02:38:04;100476.47;;;19.76;66.84
74794;BME280;63320;50.768;6.724;2023-09-07T02:40:29;100472.25;;;19.51;68.28
74794;BME280;63320;50.768;6.724;2023-09-07T02:42:55;100469.22;;;19.56;67.13
74794;BME280;63320;50.768;6.724;2023-09-07T02:45:20;100471.75;;;19.57;67.77
74794;BME280;63320;50.768;6.724;2023-09-07T02:47:47;100472.88;;;19.55;67.37
74794;BME280;63320;50.768;6.724;2023-09-07T02:50:12;100477.00;;;19.48;66.85
74794;BME280;63320;50.768;6.724;2023-09-07T02:52:39;100474.69;;;19.54;66.81
74794;BME280;63320;50.768;6.724;2023-09-07T02:55:05;100476.53;;;19.31;68.95
74794;BME280;63320;50.768;6.724;2023-09-07T02:57:31;100480.41;;;19.27;68.60
74794;BME280;63320;50.768;6.724;2023-09-07T02:59:56;100471.47;;;19.28;68.80
74794;BME280;63320;50.768;6.724;2023-09-07T03:02:21;100473.28;;;19.17;69.54
74794;BME280;63320;50.768;6.724;2023-09-07T03:04:53;100472.78;;;19.45;68.62
74794;BME280;63320;50.768;6.724;2023-09-07T03:07:18;100467.19;;;19.48;66.85
74794;BME280;63320;50.768;6.724;2023-09-07T03:09:43;100459.31;;;19.47;67.47
74794;BME280;63320;50.768;6.724;2023-09-07T03:12:09;100463.16;;;19.65;67.77
74794;BME280;63320;50.768;6.724;2023-09-07T03:14:34;100468.50;;;19.54;67.07
74794;BME280;63320;50.768;6.724;2023-09-07T03:16:59;100462.84;;;19.36;67.95
74794;BME280;63320;50.768;6.724;2023-09-07T03:19:25;100460.41;;;19.44;67.76
74794;BME280;63320;50.768;6.724;2023-09-07T03:21:52;100462.72;;;19.49;67.68
74794;BME280;63320;50.768;6.724;2023-09-07T03:24:17;100463.09;;;19.33;67.95
74794;BME280;63320;50.768;6.724;2023-09-07T03:26:43;100464.28;;;19.40;68.27
74794;BME280;63320;50.768;6.724;2023-09-07T03:29:08;100467.38;;;19.13;68.99
74794;BME280;63320;50.768;6.724;2023-09-07T03:31:33;100464.09;;;19.09;68.26
74794;BME280;63320;50.768;6.724;2023-09-07T03:33:59;100461.44;;;18.98;69.17
74794;BME280;63320;50.768;6.724;2023-09-07T03:36:24;100460.59;;;19.09;69.14
74794;BME280;63320;50.768;6.724;2023-09-07T03:38:51;100464.69;;;19.02;69.89
74794;BME280;63320;50.768;6.724;2023-09-07T03:41:16;100465.06;;;19.08;69.52
74794;BME280;63320;50.768;6.724;2023-09-07T03:43:41;100466.88;;;19.19;69.64
74794;BME280;63320;50.768;6.724;2023-09-07T03:46:06;100472.59;;;19.03;69.34
74794;BME280;63320;50.768;6.724;2023-09-07T03:48:32;100467.97;;;18.94;69.53
74794;BME280;63320;50.768;6.724;2023-09-07T03:50:57;100467.50;;;18.78;70.19
74794;BME280;63320;50.768;6.724;2023-09-07T03:53:22;100467.59;;;18.87;70.78
74794;BME280;63320;50.768;6.724;2023-09-07T03:55:49;100466.66;;;19.00;69.45
74794;BME280;63320;50.768;6.724;2023-09-07T03:58:14;100468.47;;;18.88;70.93
74794;BME280;63320;50.768;6.724;2023-09-07T04:00:40;100468.34;;;19.01;68.95
74794;BME280;63320;50.768;6.724;2023-09-07T04:03:06;100468.09;;;18.81;69.74
74794;BME280;63320;50.768;6.724;2023-09-07T04:05:31;100471.50;;;18.95;70.01
74794;BME280;63320;50.768;6.724;2023-09-07T04:07:56;100473.19;;;18.84;69.99
74794;BME280;63320;50.768;6.724;2023-09-07T04:10:22;100474.78;;;18.98;70.44
74794;BME280;63320;50.768;6.724;2023-09-07T04:12:48;100472.94;;;18.99;68.83
74794;BME280;63320;50.768;6.724;2023-09-07T04:15:14;100472.44;;;18.82;69.75
74794;BME280;63320;50.768;6.724;2023-09-07T04:17:39;100470.25;;;19.21;68.72
74794;BME280;63320;50.768;6.724;2023-09-07T04:20:06;100469.28;;;19.33;68.82
74794;BME280;63320;50.768;6.724;2023-09-07T04:22:31;100466.03;;;18.96;68.70
74794;BME280;63320;50.768;6.724;2023-09-07T04:24:56;100465.78;;;19.10;68.69
74794;BME280;63320;50.768;6.724;2023-09-07T04:27:22;100465.69;;;18.89;70.33
74794;BME280;63320;50.768;6.724;2023-09-07T04:29:48;100460.09;;;19.04;68.90
74794;BME280;63320;50.768;6.724;2023-09-07T04:32:14;100470.03;;;19.13;68.21
74794;BME280;63320;50.768;6.724;2023-09-07T04:34:39;100463.72;;;18.69;68.92
74794;BME280;63320;50.768;6.724;2023-09-07T04:37:04;100469.38;;;18.64;69.26
74794;BME280;63320;50.768;6.724;2023-09-07T04:39:30;100460.94;;;18.82;69.28
74794;BME280;63320;50.768;6.724;2023-09-07T04:41:55;100466.41;;;18.69;69.93
74794;BME280;63320;50.768;6.724;2023-09-07T04:44:20;100473.38;;;18.59;69.70
74794;BME280;63320;50.768;6.724;2023-09-07T04:46:47;100465.56;;;18.80;68.89
74794;BME280;63320;50.768;6.724;2023-09-07T04:49:12;100472.06;;;19.32;68.42
74794;BME280;63320;50.768;6.724;2023-09-07T04:51:38;100465.25;;;18.60;69.71
74794;BME280;63320;50.768;6.724;2023-09-07T04:54:03;100472.84;;;18.78;70.08
74794;BME280;63320;50.768;6.724;2023-09-07T04:56:29;100467.22;;;18.58;68.07
74794;BME280;63320;50.768;6.724;2023-09-07T04:58:54;100469.31;;;19.11;69.12
74794;BME280;63320;50.768;6.724;2023-09-07T05:01:19;100461.91;;;19.14;66.78
74794;BME280;63320;50.768;6.724;2023-09-07T05:03:46;100473.91;;;18.86;68.03
74794;BME280;63320;50.768;6.724;2023-09-07T05:06:11;100471.00;;;18.89;67.91
74794;BME280;63320;50.768;6.724;2023-09-07T05:08:37;100476.22;;;19.13;68.96
74794;BME280;63320;50.768;6.724;2023-09-07T05:11:03;100474.78;;;18.98;66.25
74794;BME280;63320;50.768;6.724;2023-09-07T05:13:29;100477.78;;;19.16;68.22
74794;BME280;63320;50.768;6.724;2023-09-07T05:15:55;100471.84;;;18.90;69.44
74794;BME280;63320;50.768;6.724;2023-09-07T05:18:21;100479.22;;;18.75;69.23
74794;BME280;63320;50.768;6.724;2023-09-07T05:20:48;100485.88;;;18.92;69.14
74794;BME280;63320;50.768;6.724;2023-09-07T05:23:14;100487.47;;;19.06;68.51
74794;BME280;63320;50.768;6.724;2023-09-07T05:25:43;100492.25;;;18.67;68.79
74794;BME280;63320;50.768;6.724;2023-09-07T05:28:08;100488.91;;;18.87;70.12
74794;BME280;63320;50.768;6.724;2023-09-07T05:30:33;100496.75;;;18.67;68.81
74794;BME280;63320;50.768;6.724;2023-09-07T05:32:59;100492.59;;;18.51;69.96
74794;BME280;63320;50.768;6.724;2023-09-07T05:35:24;100495.44;;;18.72;70.56
74794;BME280;63320;50.768;6.724;2023-09-07T05:37:50;100494.75;;;18.46;70.74
74794;BME280;63320;50.768;6.724;2023-09-07T05:40:16;100503.00;;;18.43;70.02
74794;BME280;63320;50.768;6.724;2023-09-07T05:42:41;100497.78;;;18.42;71.15
74794;BME280;63320;50.768;6.724;2023-09-07T05:45:07;100493.19;;;18.44;70.89
74794;BME280;63320;50.768;6.724;2023-09-07T05:47:33;100497.19;;;18.38;71.38
74794;BME280;63320;50.768;6.724;2023-09-07T05:49:58;100498.50;;;18.32;71.21
74794;BME280;63320;50.768;6.724;2023-09-07T05:52:23;100501.06;;;18.45;70.62
74794;BME280;63320;50.768;6.724;2023-09-07T05:54:50;100497.22;;;18.60;69.96
74794;BME280;63320;50.768;6.724;2023-09-07T05:57:15;100505.91;;;18.51;70.68
74794;BME280;63320;50.768;6.724;2023-09-07T05:59:41;100497.44;;;18.57;70.22
74794;BME280;63320;50.768;6.724;2023-09-07T06:02:06;100502.59;;;18.72;70.69
74794;BME280;63320;50.768;6.724;2023-09-07T06:04:32;100503.53;;;18.59;70.50
74794;BME280;63320;50.768;6.724;2023-09-07T06:06:57;100511.72;;;18.56;70.52
74794;BME280;63320;50.768;6.724;2023-09-07T06:09:22;100512.03;;;18.76;70.71
74794;BME280;63320;50.768;6.724;2023-09-07T06:11:49;100510.00;;;18.79;69.48
74794;BME280;63320;50.768;6.724;2023-09-07T06:14:14;100518.69;;;18.70;70.93
74794;BME280;63320;50.768;6.724;2023-09-07T06:16:39;100522.34;;;18.69;70.63
74794;BME280;63320;50.768;6.724;2023-09-07T06:19:05;100519.16;;;18.64;70.94
74794;BME280;63320;50.768;6.724;2023-09-07T06:21:30;100520.53;;;18.70;70.44
74794;BME280;63320;50.768;6.724;2023-09-07T06:23:55;100519.56;;;18.82;70.67
74794;BME280;63320;50.768;6.724;2023-09-07T06:26:21;100514.13;;;18.83;70.29
74794;BME280;63320;50.768;6.724;2023-09-07T06:28:47;100520.88;;;18.87;69.92
74794;BME280;63320;50.768;6.724;2023-09-07T06:31:13;100523.47;;;19.11;69.81
74794;BME280;63320;50.768;6.724;2023-09-07T06:33:38;100525.41;;;19.21;69.42
74794;BME280;63320;50.768;6.724;2023-09-07T06:36:04;100522.63;;;19.33;69.07
74794;BME280;63320;50.768;6.724;2023-09-07T06:38:29;100520.78;;;19.00;70.16
74794;BME280;63320;50.768;6.724;2023-09-07T06:40:54;100529.41;;;18.93;70.28
74794;BME280;63320;50.768;6.724;2023-09-07T06:43:20;100522.13;;;19.28;70.02
74794;BME280;63320;50.768;6.724;2023-09-07T06:45:46;100525.59;;;19.51;69.83
74794;BME280;63320;50.768;6.724;2023-09-07T06:48:12;100525.16;;;19.12;70.05
74794;BME280;63320;50.768;6.724;2023-09-07T06:50:37;100531.34;;;19.13;70.22
74794;BME280;63320;50.768;6.724;2023-09-07T06:53:03;100538.22;;;18.82;71.54
74794;BME280;63320;50.768;6.724;2023-09-07T06:55:28;100535.44;;;18.95;71.58
74794;BME280;63320;50.768;6.724;2023-09-07T06:57:53;100536.69;;;19.13;71.21
74794;BME280;63320;50.768;6.724;2023-09-07T07:00:19;100534.50;;;19.18;71.38
74794;BME280;63320;50.768;6.724;2023-09-07T07:02:46;100530.38;;;19.25;71.44
74794;BME280;63320;50.768;6.724;2023-09-07T07:05:11;100540.66;;;19.30;71.24
74794;BME280;63320;50.768;6.724;2023-09-07T07:07:36;100537.00;;;19.42;70.97
74794;BME280;63320;50.768;6.724;2023-09-07T07:10:02;100542.72;;;19.49;70.95
74794;BME280;63320;50.768;6.724;2023-09-07T07:12:27;100537.03;;;19.53;70.47
74794;BME280;63320;50.768;6.724;2023-09-07T07:14:52;100538.94;;;19.62;69.85
74794;BME280;63320;50.768;6.724;2023-09-07T07:17:18;100544.41;;;19.72;69.06
74794;BME280;63320;50.768;6.724;2023-09-07T07:19:44;100547.53;;;19.77;68.79
74794;BME280;63320;50.768;6.724;2023-09-07T07:22:10;100545.09;;;19.85;68.46
74794;BME280;63320;50.768;6.724;2023-09-07T07:24:35;100546.94;;;19.85;68.20
74794;BME280;63320;50.768;6.724;2023-09-07T07:27:00;100550.19;;;19.88;67.80
74794;BME280;63320;50.768;6.724;2023-09-07T07:29:26;100552.97;;;19.98;67.34
74794;BME280;63320;50.768;6.724;2023-09-07T07:31:51;100554.66;;;19.99;67.22
74794;BME280;63320;50.768;6.724;2023-09-07T07:34:16;100551.94;;;20.10;66.92
74794;BME280;63320;50.768;6.724;2023-09-07T07:36:43;100549.75;;;20.15;66.94
74794;BME280;63320;50.768;6.724;2023-09-07T07:39:08;100553.97;;;20.18;66.38
74794;BME280;63320;50.768;6.724;2023-09-07T07:41:33;100546.44;;;20.23;66.25
74794;BME280;63320;50.768;6.724;2023-09-07T07:43:59;100546.03;;;20.28;66.12
74794;BME280;63320;50.768;6.724;2023-09-07T07:46:24;100542.66;;;20.26;65.94
74794;BME280;63320;50.768;6.724;2023-09-07T07:48:50;100551.34;;;20.39;65.30
74794;BME280;63320;50.768;6.724;2023-09-07T07:51:15;100544.41;;;20.36;65.48
74794;BME280;63320;50.768;6.724;2023-09-07T07:53:42;100541.38;;;20.41;64.99
74794;BME280;63320;50.768;6.724;2023-09-07T07:56:14;100546.97;;;20.49;65.06
74794;BME280;63320;50.768;6.724;2023-09-07T07:58:39;100559.06;;;20.53;64.95
74794;BME280;63320;50.768;6.724;2023-09-07T08:01:13;100551.91;;;20.54;65.45
74794;BME280;63320;50.768;6.724;2023-09-07T08:03:38;100550.53;;;20.59;65.53
74794;BME280;63320;50.768;6.724;2023-09-07T08:06:03;100551.00;;;20.64;64.65
74794;BME280;63320;50.768;6.724;2023-09-07T08:08:29;100545.13;;;20.71;64.50
74794;BME280;63320;50.768;6.724;2023-09-07T08:10:55;100552.91;;;20.74;64.25
74794;BME280;63320;50.768;6.724;2023-09-07T08:13:21;100546.16;;;20.79;64.21
74794;BME280;63320;50.768;6.724;2023-09-07T08:15:46;100551.25;;;20.82;64.23
74794;BME280;63320;50.768;6.724;2023-09-07T08:18:12;100544.78;;;20.85;64.49
74794;BME280;63320;50.768;6.724;2023-09-07T08:20:37;100542.09;;;21.06;63.72
74794;BME280;63320;50.768;6.724;2023-09-07T08:23:02;100540.84;;;21.10;64.35
74794;BME280;63320;50.768;6.724;2023-09-07T08:25:28;100545.47;;;21.08;64.26
74794;BME280;63320;50.768;6.724;2023-09-07T08:27:54;100541.84;;;21.18;63.08
74794;BME280;63320;50.768;6.724;2023-09-07T08:30:20;100542.28;;;21.14;63.20
74794;BME280;63320;50.768;6.724;2023-09-07T08:32:45;100538.38;;;21.28;62.57
74794;BME280;63320;50.768;6.724;2023-09-07T08:35:11;100538.00;;;21.32;62.37
74794;BME280;63320;50.768;6.724;2023-09-07T08:37:36;100541.75;;;21.51;62.42
74794;BME280;63320;50.768;6.724;2023-09-07T08:40:02;100536.97;;;21.54;62.14
74794;BME280;63320;50.768;6.724;2023-09-07T08:42:27;100543.84;;;21.47;61.30
74794;BME280;63320;50.768;6.724;2023-09-07T08:44:54;100543.56;;;21.50;61.45
74794;BME280;63320;50.768;6.724;2023-09-07T08:47:22;100544.16;;;21.63;61.47
74794;BME280;63320;50.768;6.724;2023-09-07T08:49:48;100544.84;;;21.56;61.72
74794;BME280;63320;50.768;6.724;2023-09-07T08:52:14;100541.75;;;21.60;62.02
74794;BME280;63320;50.768;6.724;2023-09-07T08:54:41;100545.19;;;21.82;60.89
74794;BME280;63320;50.768;6.724;2023-09-07T08:57:07;100532.50;;;21.84;59.76
74794;BME280;63320;50.768;6.724;2023-09-07T08:59:32;100536.31;;;21.81;60.57
74794;BME280;63320;50.768;6.724;2023-09-07T09:01:59;100539.56;;;21.75;61.05
74794;BME280;63320;50.768;6.724;2023-09-07T09:04:24;100537.00;;;21.83;61.18
74794;BME280;63320;50.768;6.724;2023-09-07T09:06:50;100531.41;;;21.96;60.13
74794;BME280;63320;50.768;6.724;2023-09-07T09:09:22;100534.53;;;22.11;59.52
74794;BME280;63320;50.768;6.724;2023-09-07T09:11:47;100534.41;;;22.22;59.48
74794;BME280;63320;50.768;6.724;2023-09-07T09:14:16;100533.97;;;22.27;60.96
74794;BME280;63320;50.768;6.724;2023-09-07T09:16:46;100530.59;;;22.34;61.37
74794;BME280;63320;50.768;6.724;2023-09-07T09:19:14;100531.56;;;22.53;59.50
74794;BME280;63320;50.768;6.724;2023-09-07T09:21:39;100524.94;;;22.47;59.70
74794;BME280;63320;50.768;6.724;2023-09-07T09:24:09;100519.41;;;22.48;60.25
74794;BME280;63320;50.768;6.724;2023-09-07T09:26:36;100515.19;;;22.56;58.78
74794;BME280;63320;50.768;6.724;2023-09-07T09:29:02;100514.06;;;22.48;59.58
74794;BME280;63320;50.768;6.724;2023-09-07T09:31:27;100515.88;;;22.58;59.65
74794;BME280;63320;50.768;6.724;2023-09-07T09:33:55;100511.94;;;22.52;59.79
74794;BME280;63320;50.768;6.724;2023-09-07T09:36:22;100510.50;;;22.67;58.96
74794;BME280;63320;50.768;6.724;2023-09-07T09:38:49;100506.41;;;22.63;59.73
74794;BME280;63320;50.768;6.724;2023-09-07T09:41:17;100506.09;;;22.86;58.10
74794;BME280;63320;50.768;6.724;2023-09-07T09:43:43;100500.84;;;22.94;57.45
74794;BME280;63320;50.768;6.724;2023-09-07T09:46:09;100499.47;;;22.99;58.13
74794;BME280;63320;50.768;6.724;2023-09-07T09:48:35;100502.66;;;23.03;57.93
74794;BME280;63320;50.768;6.724;2023-09-07T09:51:02;100508.84;;;23.13;57.38
74794;BME280;63320;50.768;6.724;2023-09-07T09:53:30;100500.25;;;23.37;56.30
74794;BME280;63320;50.768;6.724;2023-09-07T09:55:55;100497.94;;;23.24;56.76
74794;BME280;63320;50.768;6.724;2023-09-07T09:58:21;100494.66;;;23.31;56.38
74794;BME280;63320;50.768;6.724;2023-09-07T10:00:48;100501.59;;;23.23;56.91
74794;BME280;63320;50.768;6.724;2023-09-07T10:03:18;100495.75;;;23.10;57.31
74794;BME280;63320;50.768;6.724;2023-09-07T10:05:45;100497.94;;;23.24;56.76
74794;BME280;63320;50.768;6.724;2023-09-07T10:08:13;100496.91;;;23.53;56.16
74794;BME280;63320;50.768;6.724;2023-09-07T10:10:41;100497.56;;;23.37;56.61
74794;BME280;63320;50.768;6.724;2023-09-07T10:13:07;100484.00;;;23.39;56.64
74794;BME280;63320;50.768;6.724;2023-09-07T10:15:33;100484.53;;;23.42;57.04
74794;BME280;63320;50.768;6.724;2023-09-07T10:18:03;100488.97;;;23.61;56.27
74794;BME280;63320;50.768;6.724;2023-09-07T10:20:29;100481.31;;;23.66;55.78
74794;BME280;63320;50.768;6.724;2023-09-07T10:23:02;100472.50;;;23.92;54.57
74794;BME280;63320;50.768;6.724;2023-09-07T10:25:30;100477.28;;;23.80;55.29
74794;BME280;63320;50.768;6.724;2023-09-07T10:27:56;100466.91;;;23.85;55.69
74794;BME280;63320;50.768;6.724;2023-09-07T10:30:22;100475.03;;;24.11;54.35
74794;BME280;63320;50.768;6.724;2023-09-07T10:32:48;100470.31;;;24.31;54.25
74794;BME280;63320;50.768;6.724;2023-09-07T10:35:14;100461.38;;;24.40;53.79
74794;BME280;63320;50.768;6.724;2023-09-07T10:37:40;100456.66;;;24.42;54.28
74794;BME280;63320;50.768;6.724;2023-09-07T10:40:07;100458.13;;;24.63;53.40
74794;BME280;63320;50.768;6.724;2023-09-07T10:42:32;100456.38;;;24.53;53.29
74794;BME280;63320;50.768;6.724;2023-09-07T10:45:08;100452.75;;;24.63;53.18
74794;BME280;63320;50.768;6.724;2023-09-07T10:47:34;100445.22;;;24.66;52.30
74794;BME280;63320;50.768;6.724;2023-09-07T10:49:59;100448.94;;;24.73;52.21
74794;BME280;63320;50.768;6.724;2023-09-07T10:52:24;100453.97;;;24.68;52.08
74794;BME280;63320;50.768;6.724;2023-09-07T10:54:55;100444.41;;;24.74;51.57
74794;BME280;63320;50.768;6.724;2023-09-07T10:57:21;100440.41;;;24.78;52.14
74794;BME280;63320;50.768;6.724;2023-09-07T10:59:46;100445.22;;;25.00;51.43
74794;BME280;63320;50.768;6.724;2023-09-07T11:02:14;100448.03;;;24.91;51.02
74794;BME280;63320;50.768;6.724;2023-09-07T11:04:40;100443.88;;;25.04;50.45
74794;BME280;63320;50.768;6.724;2023-09-07T11:07:05;100440.47;;;25.20;50.56
74794;BME280;63320;50.768;6.724;2023-09-07T11:09:31;100437.03;;;25.10;49.88
74794;BME280;63320;50.768;6.724;2023-09-07T11:11:57;100439.09;;;25.16;50.57
74794;BME280;63320;50.768;6.724;2023-09-07T11:14:22;100433.91;;;25.23;50.22
74794;BME280;63320;50.768;6.724;2023-09-07T11:16:47;100435.78;;;25.39;49.34
74794;BME280;63320;50.768;6.724;2023-09-07T11:19:14;100434.78;;;25.40;49.88
74794;BME280;63320;50.768;6.724;2023-09-07T11:21:39;100426.63;;;25.07;51.08
74794;BME280;63320;50.768;6.724;2023-09-07T11:24:05;100433.75;;;25.33;50.20
74794;BME280;63320;50.768;6.724;2023-09-07T11:26:40;100431.28;;;25.47;49.35
74794;BME280;63320;50.768;6.724;2023-09-07T11:29:06;100432.13;;;25.48;50.24
74794;BME280;63320;50.768;6.724;2023-09-07T11:31:31;100424.38;;;25.53;50.10
74794;BME280;63320;50.768;6.724;2023-09-07T11:33:57;100425.38;;;25.36;50.37
74794;BME280;63320;50.768;6.724;2023-09-07T11:36:24;100424.00;;;25.40;49.78
74794;BME280;63320;50.768;6.724;2023-09-07T11:38:49;100433.66;;;25.67;49.14
74794;BME280;63320;50.768;6.724;2023-09-07T11:41:14;100434.16;;;25.70;50.05
74794;BME280;63320;50.768;6.724;2023-09-07T11:43:40;100426.72;;;25.48;50.51
74794;BME280;63320;50.768;6.724;2023-09-07T11:46:05;100424.75;;;25.66;49.44
74794;BME280;63320;50.768;6.724;2023-09-07T11:48:30;100421.00;;;25.43;50.25
74794;BME280;63320;50.768;6.724;2023-09-07T11:50:56;100428.78;;;25.62;49.80
74794;BME280;63320;50.768;6.724;2023-09-07T11:53:22;100418.88;;;26.03;48.72
74794;BME280;63320;50.768;6.724;2023-09-07T11:55:48;100418.06;;;26.11;48.50
74794;BME280;63320;50.768;6.724;2023-09-07T11:58:13;100421.75;;;26.10;47.85
74794;BME280;63320;50.768;6.724;2023-09-07T12:00:38;100416.72;;;26.07;47.44
74794;BME280;63320;50.768;6.724;2023-09-07T12:03:04;100420.56;;;26.13;47.68
74794;BME280;63320;50.768;6.724;2023-09-07T12:05:29;100407.41;;;26.34;46.89
74794;BME280;63320;50.768;6.724;2023-09-07T12:07:54;100398.28;;;26.35;46.67
74794;BME280;63320;50.768;6.724;2023-09-07T12:10:21;100410.28;;;26.08;47.84
74794;BME280;63320;50.768;6.724;2023-09-07T12:12:47;100399.09;;;26.68;44.37
74794;BME280;63320;50.768;6.724;2023-09-07T12:15:13;100403.56;;;26.84;43.21
74794;BME280;63320;50.768;6.724;2023-09-07T12:17:38;100396.53;;;27.06;43.86
74794;BME280;63320;50.768;6.724;2023-09-07T12:20:05;100390.66;;;27.10;43.27
74794;BME280;63320;50.768;6.724;2023-09-07T12:22:31;100394.03;;;27.04;43.48
74794;BME280;63320;50.768;6.724;2023-09-07T12:24:56;100384.28;;;27.34;43.68
74794;BME280;63320;50.768;6.724;2023-09-07T12:27:23;100387.59;;;27.22;43.59
74794;BME280;63320;50.768;6.724;2023-09-07T12:29:48;100391.28;;;27.52;42.45
74794;BME280;63320;50.768;6.724;2023-09-07T12:32:13;100396.06;;;27.65;41.27
74794;BME280;63320;50.768;6.724;2023-09-07T12:34:39;100388.03;;;27.79;41.20
74794;BME280;63320;50.768;6.724;2023-09-07T12:37:04;100387.88;;;27.96;40.61
74794;BME280;63320;50.768;6.724;2023-09-07T12:39:30;100390.53;;;28.04;40.09
74794;BME280;63320;50.768;6.724;2023-09-07T12:41:55;100390.63;;;28.10;40.08
74794;BME280;63320;50.768;6.724;2023-09-07T12:44:22;100383.53;;;28.09;40.16